sensor_id;sensor_type;location;lat;lon;timestamp;pressure;altitude;pressure_sealevel;temperature;humidity
13695;BME280;6919;52.344;14.518;2022-10-16T00:01:42;100399.91;;;14.07;100.00
13695;BME280;6919;52.344;14.518;2022-10-16T00:04:10;100399.06;;;14.06;100.00
13695;BME280;6919;52.344;14.518;2022-10-16T00:06:39;100394.78;;;14.12;100.00
13695;BME280;6919;52.344;14.518;2022-10-16T00:09:07;100409.66;;;14.08;100.00
13695;BME280;6919;52.344;14.518;2022-10-16T00:11:39;100415.34;;;14.13;100.00
13695;BME280;6919;52.344;14.518;2022-10-16T00:14:10;100413.56;;;14.05;100.00
13695;BME280;6919;52.344;14.518;2022-10-16T00:16:41;100418.88;;;14.13;100.00
13695;BME280;6919;52.344;14.518;2022-10-16T00:19:10;100419.19;;;14.18;100.00
13695;BME280;6919;52.344;14.518;2022-10-16T00:21:39;100416.91;;;14.07;100.00
13695;BME280;6919;52.344;14.518;2022-10-16T00:24:10;100420.72;;;14.13;100.00
13695;BME280;6919;52.344;14.518;2022-10-16T00:26:39;100421.94;;;14.10;100.00
13695;BME280;6919;52.344;14.518;2022-10-16T00:29:07;100432.91;;;14.09;100.00
13695;BME280;6919;52.344;14.518;2022-10-16T00:31:36;100419.91;;;13.90;100.00
13695;BME280;6919;52.344;14.518;2022-10-16T00:34:06;100428.09;;;13.96;100.00
13695;BME280;6919;52.344;14.518;2022-10-16T00:36:34;100422.97;;;14.09;100.00
13695;BME280;6919;52.344;14.518;2022-10-16T00:39:03;100427.91;;;14.20;100.00
13695;BME280;6919;52.344;14.518;2022-10-16T00:41:32;100435.50;;;14.25;100.00
13695;BME280;6919;52.344;14.518;2022-10-16T00:44:03;100445.50;;;14.39;100.00
13695;BME280;6919;52.344;14.518;2022-10-16T00:46:40;100445.63;;;14.23;100.00
13695;BME280;6919;52.344;14.518;2022-10-16T00:49:13;100441.59;;;14.41;100.00
13695;BME280;6919;52.344;14.518;2022-10-16T00:51:45;100443.25;;;14.42;100.00
13695;BME280;6919;52.344;14.518;2022-10-16T00:54:19;100438.44;;;14.38;100.00
13695;BME280;6919;52.344;14.518;2022-10-16T00:56:50;100445.13;;;14.42;100.00
13695;BME280;6919;52.344;14.518;2022-10-16T00:59:22;100445.56;;;14.31;100.00
13695;BME280;6919;52.344;14.518;2022-10-16T01:01:53;100449.78;;;14.48;100.00
13695;BME280;6919;52.344;14.518;2022-10-16T01:04:24;100452.75;;;14.38;100.00
13695;BME280;6919;52.344;14.518;2022-10-16T01:07:06;100465.50;;;14.44;100.00
13695;BME280;6919;52.344;14.518;2022-10-16T01:09:47;100462.81;;;14.44;100.00
13695;BME280;6919;52.344;14.518;2022-10-16T01:12:29;100460.75;;;14.46;100.00
13695;BME280;6919;52.344;14.518;2022-10-16T01:15:11;100460.75;;;14.46;100.00
13695;BME280;6919;52.344;14.518;2022-10-16T01:17:49;100456.94;;;14.41;100.00
13695;BME280;6919;52.344;14.518;2022-10-16T01:20:29;100460.00;;;14.38;100.00
13695;BME280;6919;52.344;14.518;2022-10-16T01:23:10;100462.22;;;14.34;100.00
13695;BME280;6919;52.344;14.518;2022-10-16T01:26:14;100464.47;;;14.45;100.00
13695;BME280;6919;52.344;14.518;2022-10-16T01:28:53;100470.06;;;14.44;100.00
13695;BME280;6919;52.344;14.518;2022-10-16T01:31:26;100469.69;;;14.47;100.00
13695;BME280;6919;52.344;14.518;2022-10-16T01:34:03;100474.56;;;14.51;100.00
13695;BME280;6919;52.344;14.518;2022-10-16T01:36:39;100456.91;;;14.78;100.00
13695;BME280;6919;52.344;14.518;2022-10-16T01:39:10;100447.69;;;14.73;100.00
13695;BME280;6919;52.344;14.518;2022-10-16T01:41:44;100456.63;;;14.73;100.00
13695;BME280;6919;52.344;14.518;2022-10-16T01:44:20;100463.34;;;14.77;100.00
13695;BME280;6919;52.344;14.518;2022-10-16T01:46:52;100453.66;;;14.97;100.00
13695;BME280;6919;52.344;14.518;2022-10-16T01:49:23;100457.03;;;14.99;100.00
13695;BME280;6919;52.344;14.518;2022-10-16T01:51:59;100444.75;;;14.97;100.00
13695;BME280;6919;52.344;14.518;2022-10-16T01:54:30;100444.00;;;14.88;100.00
13695;BME280;6919;52.344;14.518;2022-10-16T01:57:03;100455.06;;;14.79;100.00
13695;BME280;6919;52.344;14.518;2022-10-16T01:59:40;100458.41;;;14.81;100.00
13695;BME280;6919;52.344;14.518;2022-10-16T02:02:11;100460.38;;;14.87;100.00
13695;BME280;6919;52.344;14.518;2022-10-16T02:04:46;100461.00;;;14.89;100.00
13695;BME280;6919;52.344;14.518;2022-10-16T02:07:16;100468.66;;;14.85;100.00
13695;BME280;6919;52.344;14.518;2022-10-16T02:09:44;100466.78;;;14.86;100.00
13695;BME280;6919;52.344;14.518;2022-10-16T02:12:19;100461.84;;;14.89;100.00
13695;BME280;6919;52.344;14.518;2022-10-16T02:14:53;100466.03;;;14.92;100.00
13695;BME280;6919;52.344;14.518;2022-10-16T02:17:22;100479.09;;;14.88;100.00
13695;BME280;6919;52.344;14.518;2022-10-16T02:19:54;100472.94;;;14.94;100.00
13695;BME280;6919;52.344;14.518;2022-10-16T02:22:28;100462.06;;;15.02;100.00
13695;BME280;6919;52.344;14.518;2022-10-16T02:25:03;100476.88;;;15.06;100.00
13695;BME280;6919;52.344;14.518;2022-10-16T02:27:40;100479.19;;;15.09;100.00
13695;BME280;6919;52.344;14.518;2022-10-16T02:30:16;100483.00;;;15.15;100.00
13695;BME280;6919;52.344;14.518;2022-10-16T02:32:49;100485.06;;;15.13;100.00
13695;BME280;6919;52.344;14.518;2022-10-16T02:35:21;100483.19;;;14.99;100.00
13695;BME280;6919;52.344;14.518;2022-10-16T02:37:51;100483.00;;;15.15;100.00
13695;BME280;6919;52.344;14.518;2022-10-16T02:40:20;100487.84;;;15.19;100.00
13695;BME280;6919;52.344;14.518;2022-10-16T02:42:53;100493.78;;;15.29;100.00
13695;BME280;6919;52.344;14.518;2022-10-16T02:45:23;100493.97;;;15.28;100.00
13695;BME280;6919;52.344;14.518;2022-10-16T02:47:52;100508.25;;;15.36;100.00
13695;BME280;6919;52.344;14.518;2022-10-16T02:50:20;100498.66;;;15.34;100.00
13695;BME280;6919;52.344;14.518;2022-10-16T02:52:48;100492.72;;;15.38;100.00
13695;BME280;6919;52.344;14.518;2022-10-16T02:55:17;100487.56;;;15.43;100.00
13695;BME280;6919;52.344;14.518;2022-10-16T02:57:45;100492.97;;;15.43;100.00
13695;BME280;6919;52.344;14.518;2022-10-16T03:00:16;100487.66;;;15.35;100.00
13695;BME280;6919;52.344;14.518;2022-10-16T03:02:46;100484.44;;;15.40;100.00
13695;BME280;6919;52.344;14.518;2022-10-16T03:05:14;100480.50;;;15.42;100.00
13695;BME280;6919;52.344;14.518;2022-10-16T03:07:42;100482.19;;;15.43;100.00
13695;BME280;6919;52.344;14.518;2022-10-16T03:10:11;100479.84;;;15.40;100.00
13695;BME280;6919;52.344;14.518;2022-10-16T03:12:39;100491.69;;;15.39;100.00
13695;BME280;6919;52.344;14.518;2022-10-16T03:15:08;100496.50;;;15.29;100.00
13695;BME280;6919;52.344;14.518;2022-10-16T03:17:36;100502.03;;;15.36;100.00
13695;BME280;6919;52.344;14.518;2022-10-16T03:20:07;100497.91;;;15.25;100.00
13695;BME280;6919;52.344;14.518;2022-10-16T03:22:35;100504.03;;;15.19;100.00
13695;BME280;6919;52.344;14.518;2022-10-16T03:25:04;100511.88;;;15.14;100.00
13695;BME280;6919;52.344;14.518;2022-10-16T03:27:32;100508.06;;;15.09;100.00
13695;BME280;6919;52.344;14.518;2022-10-16T03:30:00;100502.19;;;15.05;100.00
13695;BME280;6919;52.344;14.518;2022-10-16T03:32:28;100518.84;;;15.09;100.00
13695;BME280;6919;52.344;14.518;2022-10-16T03:34:56;100520.16;;;15.13;100.00
13695;BME280;6919;52.344;14.518;2022-10-16T03:37:26;100514.56;;;15.14;100.00
13695;BME280;6919;52.344;14.518;2022-10-16T03:39:55;100515.88;;;15.18;100.00
13695;BME280;6919;52.344;14.518;2022-10-16T03:42:23;100521.56;;;15.23;100.00
13695;BME280;6919;52.344;14.518;2022-10-16T03:44:51;100523.16;;;15.32;100.00
13695;BME280;6919;52.344;14.518;2022-10-16T03:47:19;100516.00;;;15.25;100.00
13695;BME280;6919;52.344;14.518;2022-10-16T03:49:48;100531.44;;;15.31;100.00
13695;BME280;6919;52.344;14.518;2022-10-16T03:52:17;100532.97;;;15.48;100.00
13695;BME280;6919;52.344;14.518;2022-10-16T03:54:51;100520.19;;;15.56;100.00
13695;BME280;6919;52.344;14.518;2022-10-16T03:57:19;100527.63;;;15.54;100.00
13695;BME280;6919;52.344;14.518;2022-10-16T03:59:47;100539.78;;;15.58;100.00
13695;BME280;6919;52.344;14.518;2022-10-16T04:02:16;100543.66;;;15.56;100.00
13695;BME280;6919;52.344;14.518;2022-10-16T04:04:44;100549.63;;;15.66;100.00
13695;BME280;6919;52.344;14.518;2022-10-16T04:07:12;100546.75;;;15.67;100.00
13695;BME280;6919;52.344;14.518;2022-10-16T04:09:40;100549.50;;;15.74;100.00
13695;BME280;6919;52.344;14.518;2022-10-16T04:12:10;100549.63;;;15.80;100.00
13695;BME280;6919;52.344;14.518;2022-10-16T04:14:38;100548.50;;;15.75;100.00
13695;BME280;6919;52.344;14.518;2022-10-16T04:17:06;100542.81;;;15.70;100.00
13695;BME280;6919;52.344;14.518;2022-10-16T04:19:34;100540.03;;;15.63;100.00
13695;BME280;6919;52.344;14.518;2022-10-16T04:22:02;100542.84;;;15.55;100.00
13695;BME280;6919;52.344;14.518;2022-10-16T04:24:30;100550.03;;;15.48;100.00
13695;BME280;6919;52.344;14.518;2022-10-16T04:26:58;100549.09;;;15.41;100.00
13695;BME280;6919;52.344;14.518;2022-10-16T04:29:28;100559.72;;;15.43;100.00
13695;BME280;6919;52.344;14.518;2022-10-16T04:31:56;100574.41;;;15.40;100.00
13695;BME280;6919;52.344;14.518;2022-10-16T04:34:24;100559.22;;;15.39;100.00
13695;BME280;6919;52.344;14.518;2022-10-16T04:36:52;100562.78;;;15.40;100.00
13695;BME280;6919;52.344;14.518;2022-10-16T04:39:20;100569.19;;;15.53;100.00
13695;BME280;6919;52.344;14.518;2022-10-16T04:41:48;100559.44;;;15.52;100.00
13695;BME280;6919;52.344;14.518;2022-10-16T04:44:16;100562.94;;;15.53;100.00
13695;BME280;6919;52.344;14.518;2022-10-16T04:46:46;100562.50;;;15.49;100.00
13695;BME280;6919;52.344;14.518;2022-10-16T04:49:13;100558.41;;;15.39;100.00
13695;BME280;6919;52.344;14.518;2022-10-16T04:51:42;100558.19;;;15.40;100.00
13695;BME280;6919;52.344;14.518;2022-10-16T04:54:10;100553.66;;;15.41;100.00
13695;BME280;6919;52.344;14.518;2022-10-16T04:56:38;100566.97;;;15.42;100.00
13695;BME280;6919;52.344;14.518;2022-10-16T04:59:13;100571.06;;;15.38;100.00
13695;BME280;6919;52.344;14.518;2022-10-16T05:01:42;100568.44;;;15.30;100.00
13695;BME280;6919;52.344;14.518;2022-10-16T05:04:12;100573.97;;;15.37;100.00
13695;BME280;6919;52.344;14.518;2022-10-16T05:06:42;100574.63;;;15.39;100.00
13695;BME280;6919;52.344;14.518;2022-10-16T05:09:10;100566.72;;;15.37;100.00
13695;BME280;6919;52.344;14.518;2022-10-16T05:11:38;100560.75;;;15.19;100.00
13695;BME280;6919;52.344;14.518;2022-10-16T05:14:06;100560.88;;;15.26;100.00
13695;BME280;6919;52.344;14.518;2022-10-16T05:16:34;100562.56;;;15.27;100.00
13695;BME280;6919;52.344;14.518;2022-10-16T05:19:02;100571.56;;;15.19;100.00
13695;BME280;6919;52.344;14.518;2022-10-16T05:21:52;100584.75;;;15.00;100.00
13695;BME280;6919;52.344;14.518;2022-10-16T05:24:20;100596.63;;;15.13;100.00
13695;BME280;6919;52.344;14.518;2022-10-16T05:26:48;100591.50;;;15.04;100.00
13695;BME280;6919;52.344;14.518;2022-10-16T05:29:16;100593.44;;;14.95;100.00
13695;BME280;6919;52.344;14.518;2022-10-16T05:31:44;100595.81;;;14.90;100.00
13695;BME280;6919;52.344;14.518;2022-10-16T05:34:12;100599.91;;;14.86;100.00
13695;BME280;6919;52.344;14.518;2022-10-16T05:36:40;100601.22;;;14.90;100.00
13695;BME280;6919;52.344;14.518;2022-10-16T05:39:10;100603.47;;;15.01;100.00
13695;BME280;6919;52.344;14.518;2022-10-16T05:41:38;100609.38;;;15.05;100.00
13695;BME280;6919;52.344;14.518;2022-10-16T05:44:06;100604.44;;;15.08;100.00
13695;BME280;6919;52.344;14.518;2022-10-16T05:46:34;100600.81;;;15.16;100.00
13695;BME280;6919;52.344;14.518;2022-10-16T05:49:03;100619.19;;;15.20;100.00
13695;BME280;6919;52.344;14.518;2022-10-16T05:51:31;100618.75;;;15.31;100.00
13695;BME280;6919;52.344;14.518;2022-10-16T05:53:59;100620.78;;;15.29;100.00
13695;BME280;6919;52.344;14.518;2022-10-16T05:56:28;100623.28;;;15.31;100.00
13695;BME280;6919;52.344;14.518;2022-10-16T05:58:56;100616.75;;;15.25;100.00
13695;BME280;6919;52.344;14.518;2022-10-16T06:01:24;100620.94;;;15.28;100.00
13695;BME280;6919;52.344;14.518;2022-10-16T06:03:53;100631.81;;;15.42;100.00
13695;BME280;6919;52.344;14.518;2022-10-16T06:06:23;100633.13;;;15.46;100.00
13695;BME280;6919;52.344;14.518;2022-10-16T06:08:53;100630.44;;;15.46;100.00
13695;BME280;6919;52.344;14.518;2022-10-16T06:11:24;100627.44;;;15.56;100.00
13695;BME280;6919;52.344;14.518;2022-10-16T06:13:56;100628.97;;;15.58;100.00
13695;BME280;6919;52.344;14.518;2022-10-16T06:16:26;100636.31;;;15.64;100.00
13695;BME280;6919;52.344;14.518;2022-10-16T06:18:56;100629.50;;;15.68;100.00
13695;BME280;6919;52.344;14.518;2022-10-16T06:21:27;100642.00;;;15.69;100.00
13695;BME280;6919;52.344;14.518;2022-10-16T06:23:57;100647.13;;;15.64;100.00
13695;BME280;6919;52.344;14.518;2022-10-16T06:26:29;100641.63;;;15.72;100.00
13695;BME280;6919;52.344;14.518;2022-10-16T06:28:59;100654.31;;;15.72;100.00
13695;BME280;6919;52.344;14.518;2022-10-16T06:31:28;100648.34;;;15.76;100.00
13695;BME280;6919;52.344;14.518;2022-10-16T06:33:58;100645.56;;;15.84;100.00
13695;BME280;6919;52.344;14.518;2022-10-16T06:36:27;100652.25;;;15.88;100.00
13695;BME280;6919;52.344;14.518;2022-10-16T06:38:55;100645.44;;;15.92;100.00
13695;BME280;6919;52.344;14.518;2022-10-16T06:41:24;100640.78;;;15.86;100.00
13695;BME280;6919;52.344;14.518;2022-10-16T06:43:52;100640.78;;;15.86;100.00
13695;BME280;6919;52.344;14.518;2022-10-16T06:46:24;100635.84;;;15.90;100.00
13695;BME280;6919;52.344;14.518;2022-10-16T06:48:53;100650.03;;;15.92;100.00
13695;BME280;6919;52.344;14.518;2022-10-16T06:51:23;100670.63;;;15.78;100.00
13695;BME280;6919;52.344;14.518;2022-10-16T06:53:53;100671.16;;;15.74;100.00
13695;BME280;6919;52.344;14.518;2022-10-16T06:56:33;100679.09;;;15.75;100.00
13695;BME280;6919;52.344;14.518;2022-10-16T06:59:02;100673.25;;;15.72;100.00
13695;BME280;6919;52.344;14.518;2022-10-16T07:01:32;100674.72;;;15.74;100.00
13695;BME280;6919;52.344;14.518;2022-10-16T07:04:01;100679.41;;;15.80;100.00
13695;BME280;6919;52.344;14.518;2022-10-16T07:06:33;100680.41;;;15.79;100.00
13695;BME280;6919;52.344;14.518;2022-10-16T07:09:04;100675.28;;;15.84;100.00
13695;BME280;6919;52.344;14.518;2022-10-16T07:11:33;100678.63;;;15.86;100.00
13695;BME280;6919;52.344;14.518;2022-10-16T07:14:02;100681.16;;;15.88;100.00
13695;BME280;6919;52.344;14.518;2022-10-16T07:16:32;100681.53;;;15.99;100.00
13695;BME280;6919;52.344;14.518;2022-10-16T07:19:02;100671.38;;;16.01;100.00
13695;BME280;6919;52.344;14.518;2022-10-16T07:21:32;100675.66;;;16.10;100.00
13695;BME280;6919;52.344;14.518;2022-10-16T07:24:05;100680.31;;;16.16;100.00
13695;BME280;6919;52.344;14.518;2022-10-16T07:26:36;100690.47;;;16.29;100.00
13695;BME280;6919;52.344;14.518;2022-10-16T07:29:06;100702.97;;;16.30;100.00
13695;BME280;6919;52.344;14.518;2022-10-16T07:31:36;100709.22;;;16.30;100.00
13695;BME280;6919;52.344;14.518;2022-10-16T07:34:05;100706.63;;;16.51;100.00
13695;BME280;6919;52.344;14.518;2022-10-16T07:36:33;100706.69;;;16.58;100.00
13695;BME280;6919;52.344;14.518;2022-10-16T07:39:02;100708.34;;;16.59;100.00
13695;BME280;6919;52.344;14.518;2022-10-16T07:41:30;100719.66;;;16.62;100.00
13695;BME280;6919;52.344;14.518;2022-10-16T07:43:59;100722.72;;;16.74;100.00
13695;BME280;6919;52.344;14.518;2022-10-16T07:46:31;100731.06;;;16.93;100.00
13695;BME280;6919;52.344;14.518;2022-10-16T07:49:02;100736.94;;;16.97;100.00
13695;BME280;6919;52.344;14.518;2022-10-16T07:51:30;100736.56;;;17.21;100.00
13695;BME280;6919;52.344;14.518;2022-10-16T07:53:58;100738.03;;;17.02;100.00
13695;BME280;6919;52.344;14.518;2022-10-16T07:56:26;100741.41;;;17.04;100.00
13695;BME280;6919;52.344;14.518;2022-10-16T07:58:54;100733.28;;;17.04;100.00
13695;BME280;6919;52.344;14.518;2022-10-16T08:01:23;100728.47;;;17.06;100.00
13695;BME280;6919;52.344;14.518;2022-10-16T08:03:52;100725.91;;;17.19;100.00
13695;BME280;6919;52.344;14.518;2022-10-16T08:06:22;100733.13;;;17.12;100.00
13695;BME280;6919;52.344;14.518;2022-10-16T08:08:55;100741.66;;;17.30;100.00
13695;BME280;6919;52.344;14.518;2022-10-16T08:11:23;100740.50;;;17.39;100.00
13695;BME280;6919;52.344;14.518;2022-10-16T08:13:51;100734.03;;;17.62;100.00
13695;BME280;6919;52.344;14.518;2022-10-16T08:16:20;100746.09;;;17.80;100.00
13695;BME280;6919;52.344;14.518;2022-10-16T08:18:48;100744.09;;;17.95;100.00
13695;BME280;6919;52.344;14.518;2022-10-16T08:21:22;100734.31;;;18.01;100.00
13695;BME280;6919;52.344;14.518;2022-10-16T08:23:51;100728.06;;;18.00;100.00
13695;BME280;6919;52.344;14.518;2022-10-16T08:26:25;100724.34;;;18.08;100.00
13695;BME280;6919;52.344;14.518;2022-10-16T08:28:54;100732.19;;;18.24;100.00
13695;BME280;6919;52.344;14.518;2022-10-16T08:31:23;100740.50;;;18.50;100.00
13695;BME280;6919;52.344;14.518;2022-10-16T08:33:53;100739.72;;;18.62;100.00
13695;BME280;6919;52.344;14.518;2022-10-16T08:36:23;100738.81;;;18.49;100.00
13695;BME280;6919;52.344;14.518;2022-10-16T08:38:51;100727.56;;;18.58;100.00
13695;BME280;6919;52.344;14.518;2022-10-16T08:44:56;100739.69;;;18.56;100.00
13695;BME280;6919;52.344;14.518;2022-10-16T08:47:43;100730.50;;;18.63;100.00
13695;BME280;6919;52.344;14.518;2022-10-16T08:50:23;100722.84;;;18.80;100.00
13695;BME280;6919;52.344;14.518;2022-10-16T08:52:54;100728.91;;;18.82;100.00
13695;BME280;6919;52.344;14.518;2022-10-16T08:55:34;100734.75;;;18.79;100.00
13695;BME280;6919;52.344;14.518;2022-10-16T08:58:13;100748.81;;;18.95;100.00
13695;BME280;6919;52.344;14.518;2022-10-16T09:00:45;100762.84;;;19.12;100.00
13695;BME280;6919;52.344;14.518;2022-10-16T09:03:25;100750.59;;;19.29;100.00
13695;BME280;6919;52.344;14.518;2022-10-16T09:06:26;100756.28;;;19.60;100.00
13695;BME280;6919;52.344;14.518;2022-10-16T09:09:24;100739.31;;;19.71;100.00
13695;BME280;6919;52.344;14.518;2022-10-16T09:12:03;100732.63;;;19.67;100.00
13695;BME280;6919;52.344;14.518;2022-10-16T09:14:52;100735.75;;;19.64;100.00
13695;BME280;6919;52.344;14.518;2022-10-16T09:17:37;100755.66;;;19.45;100.00
13695;BME280;6919;52.344;14.518;2022-10-16T09:20:32;100748.19;;;19.00;100.00
13695;BME280;6919;52.344;14.518;2022-10-16T09:23:16;100754.69;;;18.99;100.00
13695;BME280;6919;52.344;14.518;2022-10-16T09:25:48;100753.63;;;18.93;100.00
13695;BME280;6919;52.344;14.518;2022-10-16T09:28:18;100750.31;;;19.04;100.00
13695;BME280;6919;52.344;14.518;2022-10-16T09:30:47;100753.63;;;19.06;100.00
13695;BME280;6919;52.344;14.518;2022-10-16T09:33:20;100756.16;;;19.01;100.00
13695;BME280;6919;52.344;14.518;2022-10-16T09:35:51;100765.81;;;19.17;100.00
13695;BME280;6919;52.344;14.518;2022-10-16T09:38:23;100749.16;;;19.46;100.00
13695;BME280;6919;52.344;14.518;2022-10-16T09:40:54;100737.00;;;19.29;100.00
13695;BME280;6919;52.344;14.518;2022-10-16T09:43:35;100737.00;;;19.29;100.00
13695;BME280;6919;52.344;14.518;2022-10-16T09:46:09;100741.00;;;19.46;100.00
13695;BME280;6919;52.344;14.518;2022-10-16T09:48:50;100754.81;;;19.64;100.00
13695;BME280;6919;52.344;14.518;2022-10-16T09:51:23;100759.63;;;19.62;100.00
13695;BME280;6919;52.344;14.518;2022-10-16T09:53:58;100768.19;;;19.72;100.00
13695;BME280;6919;52.344;14.518;2022-10-16T09:56:30;100770.69;;;19.54;100.00
13695;BME280;6919;52.344;14.518;2022-10-16T09:59:08;100770.09;;;19.58;100.00
13695;BME280;6919;52.344;14.518;2022-10-16T10:01:39;100764.03;;;19.63;100.00
13695;BME280;6919;52.344;14.518;2022-10-16T10:04:08;100776.34;;;19.52;100.00
13695;BME280;6919;52.344;14.518;2022-10-16T10:06:42;100790.75;;;19.27;100.00
13695;BME280;6919;52.344;14.518;2022-10-16T10:09:20;100778.44;;;19.37;100.00
13695;BME280;6919;52.344;14.518;2022-10-16T10:11:55;100775.06;;;19.29;100.00
13695;BME280;6919;52.344;14.518;2022-10-16T10:14:28;100773.84;;;19.57;100.00
13695;BME280;6919;52.344;14.518;2022-10-16T10:17:15;100784.13;;;19.81;100.00
13695;BME280;6919;52.344;14.518;2022-10-16T10:19:51;100781.41;;;19.81;100.00
13695;BME280;6919;52.344;14.518;2022-10-16T10:22:30;100786.19;;;19.66;100.00
13695;BME280;6919;52.344;14.518;2022-10-16T10:25:23;100794.16;;;19.55;100.00
13695;BME280;6919;52.344;14.518;2022-10-16T10:28:42;100804.41;;;19.53;100.00
13695;BME280;6919;52.344;14.518;2022-10-16T10:31:20;100781.19;;;19.76;100.00
13695;BME280;6919;52.344;14.518;2022-10-16T10:33:58;100783.06;;;19.56;100.00
13695;BME280;6919;52.344;14.518;2022-10-16T10:36:35;100788.94;;;19.53;100.00
13695;BME280;6919;52.344;14.518;2022-10-16T10:39:08;100783.91;;;19.63;100.00
13695;BME280;6919;52.344;14.518;2022-10-16T10:42:02;100781.16;;;19.57;100.00
13695;BME280;6919;52.344;14.518;2022-10-16T10:45:17;100780.78;;;19.73;100.00
13695;BME280;6919;52.344;14.518;2022-10-16T10:48:00;100783.91;;;19.76;100.00
13695;BME280;6919;52.344;14.518;2022-10-16T10:50:39;100788.09;;;19.79;100.00
13695;BME280;6919;52.344;14.518;2022-10-16T10:53:21;100796.25;;;19.72;100.00
13695;BME280;6919;52.344;14.518;2022-10-16T10:56:00;100786.00;;;19.61;100.00
13695;BME280;6919;52.344;14.518;2022-10-16T10:58:53;100801.50;;;19.74;100.00
13695;BME280;6919;52.344;14.518;2022-10-16T11:01:39;100789.78;;;19.86;100.00
13695;BME280;6919;52.344;14.518;2022-10-16T11:04:49;100785.59;;;19.97;100.00
13695;BME280;6919;52.344;14.518;2022-10-16T11:07:28;100790.41;;;20.14;100.00
13695;BME280;6919;52.344;14.518;2022-10-16T11:10:04;100796.69;;;20.35;100.00
13695;BME280;6919;52.344;14.518;2022-10-16T11:12:38;100802.09;;;20.41;100.00
13695;BME280;6919;52.344;14.518;2022-10-16T11:15:15;100806.09;;;20.32;100.00
13695;BME280;6919;52.344;14.518;2022-10-16T11:17:52;100808.59;;;20.34;100.00
13695;BME280;6919;52.344;14.518;2022-10-16T11:20:25;100811.97;;;20.23;100.00
13695;BME280;6919;52.344;14.518;2022-10-16T11:23:00;100809.44;;;20.21;100.00
13695;BME280;6919;52.344;14.518;2022-10-16T11:25:31;100805.69;;;20.22;100.00
13695;BME280;6919;52.344;14.518;2022-10-16T11:28:06;100810.06;;;20.30;100.00
13695;BME280;6919;52.344;14.518;2022-10-16T11:30:47;100811.50;;;20.45;100.00
13695;BME280;6919;52.344;14.518;2022-10-16T11:33:30;100817.81;;;20.33;100.00
13695;BME280;6919;52.344;14.518;2022-10-16T11:36:10;100817.56;;;20.54;100.00
13695;BME280;6919;52.344;14.518;2022-10-16T11:38:47;100811.31;;;20.34;100.00
13695;BME280;6919;52.344;14.518;2022-10-16T11:41:27;100819.50;;;20.40;100.00
13695;BME280;6919;52.344;14.518;2022-10-16T11:44:18;100834.97;;;20.53;100.00
13695;BME280;6919;52.344;14.518;2022-10-16T11:46:58;100816.97;;;20.45;100.00
13695;BME280;6919;52.344;14.518;2022-10-16T11:49:58;100827.38;;;20.81;100.00
13695;BME280;6919;52.344;14.518;2022-10-16T11:52:35;100828.81;;;20.96;100.00
13695;BME280;6919;52.344;14.518;2022-10-16T11:55:14;100827.00;;;20.64;100.00
13695;BME280;6919;52.344;14.518;2022-10-16T11:57:47;100835.44;;;20.24;100.00
13695;BME280;6919;52.344;14.518;2022-10-16T12:00:23;100827.91;;;20.19;100.00
13695;BME280;6919;52.344;14.518;2022-10-16T12:03:03;100828.09;;;20.24;100.00
13695;BME280;6919;52.344;14.518;2022-10-16T12:05:52;100829.94;;;20.63;100.00
13695;BME280;6919;52.344;14.518;2022-10-16T12:08:23;100826.94;;;20.77;100.00
13695;BME280;6919;52.344;14.518;2022-10-16T12:10:52;100828.94;;;21.08;100.00
13695;BME280;6919;52.344;14.518;2022-10-16T12:13:31;100829.81;;;21.02;100.00
13695;BME280;6919;52.344;14.518;2022-10-16T12:16:20;100824.28;;;21.15;100.00
13695;BME280;6919;52.344;14.518;2022-10-16T12:18:49;100820.06;;;21.25;100.00
13695;BME280;6919;52.344;14.518;2022-10-16T12:21:31;100830.66;;;21.02;100.00
13695;BME280;6919;52.344;14.518;2022-10-16T12:24:03;100830.66;;;21.02;100.00
13695;BME280;6919;52.344;14.518;2022-10-16T12:26:33;100840.44;;;21.16;100.00
13695;BME280;6919;52.344;14.518;2022-10-16T12:29:23;100842.88;;;20.93;100.00
13695;BME280;6919;52.344;14.518;2022-10-16T12:31:56;100836.38;;;20.75;100.00
13695;BME280;6919;52.344;14.518;2022-10-16T12:34:30;100840.41;;;20.46;100.00
13695;BME280;6919;52.344;14.518;2022-10-16T12:37:14;100852.75;;;20.62;100.00
13695;BME280;6919;52.344;14.518;2022-10-16T12:39:43;100853.22;;;20.52;100.00
13695;BME280;6919;52.344;14.518;2022-10-16T12:42:31;100860.16;;;20.42;100.00
13695;BME280;6919;52.344;14.518;2022-10-16T12:45:01;100849.47;;;20.14;100.00
13695;BME280;6919;52.344;14.518;2022-10-16T12:47:50;100854.28;;;20.45;100.00
13695;BME280;6919;52.344;14.518;2022-10-16T12:50:27;100866.22;;;20.50;100.00
13695;BME280;6919;52.344;14.518;2022-10-16T12:53:01;100857.44;;;20.42;100.00
13695;BME280;6919;52.344;14.518;2022-10-16T12:55:42;100857.59;;;20.60;100.00
13695;BME280;6919;52.344;14.518;2022-10-16T12:58:34;100857.09;;;20.95;100.00
13695;BME280;6919;52.344;14.518;2022-10-16T13:01:22;100876.97;;;21.15;100.00
13695;BME280;6919;52.344;14.518;2022-10-16T13:04:26;100877.94;;;21.27;100.00
13695;BME280;6919;52.344;14.518;2022-10-16T13:07:20;100868.72;;;21.28;100.00
13695;BME280;6919;52.344;14.518;2022-10-16T13:10:09;100871.03;;;21.69;100.00
13695;BME280;6919;52.344;14.518;2022-10-16T13:16:08;100874.09;;;22.59;100.00
13695;BME280;6919;52.344;14.518;2022-10-16T13:18:56;100878.47;;;22.17;100.00
13695;BME280;6919;52.344;14.518;2022-10-16T13:21:41;100876.38;;;21.88;100.00